Observation data for Dimmitt on 12/08/2018      Previous  Date  Next       Current Mesonet Observations  Soil Data  Daily Summary Page  Observations in Plain Language
KDMS 080600Z 05005KT M01/M02 A3028 RMK A01 T10081022  RH  091%=      5-min Rain = 0
KDMS 080605Z 05006KT M01/M02 A3028 RMK A01 T10081023  RH  091%=      5-min Rain = 0
KDMS 080610Z 05006KT M01/M02 A3028 RMK A01 T10091024  RH  090%=      5-min Rain = 0
KDMS 080615Z 04007KT M01/M02 A3028 RMK A01 T10091024  RH  090%=      5-min Rain = 0
KDMS 080620Z 04007KT M01/M02 A3028 RMK A01 T10091024  RH  090%=      5-min Rain = 0
KDMS 080625Z 04008KT M01/M02 A3027 RMK A01 T10101024  RH  091%=      5-min Rain = 0
KDMS 080630Z 04006KT M01/M02 A3027 RMK A01 T10101023  RH  091%=      5-min Rain = 0
KDMS 080635Z 04007KT M01/M02 A3027 RMK A01 T10101023  RH  091%=      5-min Rain = 0
KDMS 080640Z 04005KT M01/M02 A3027 RMK A01 T10101022  RH  092%=      5-min Rain = 0
KDMS 080645Z 05005KT M01/M02 A3028 RMK A01 T10101022  RH  092%=      5-min Rain = 0
KDMS 080650Z 05005KT M01/M02 A3027 RMK A01 T10101022  RH  092%=      5-min Rain = 0
KDMS 080655Z 05006KT M01/M02 A3027 RMK A01 T10101022  RH  092%=      5-min Rain = 0
KDMS 080700Z 04005KT M01/M02 A3027 RMK A01 T10111023  RH  093%=      5-min Rain = 0
KDMS 080705Z 03007KT M01/M02 A3027 RMK A01 T10111022  RH  093%=      5-min Rain = 0
KDMS 080710Z 03007KT M01/M02 A3026 RMK A01 T10111022  RH  093%=      5-min Rain = 0
KDMS 080715Z 03006KT M01/M02 A3027 RMK A01 T10111021  RH  093%=      5-min Rain = 0
KDMS 080720Z 03006KT M01/M02 A3027 RMK A01 T10111021  RH  094%=      5-min Rain = 0
KDMS 080725Z 03005KT M01/M02 A3027 RMK A01 T10101020  RH  094%=      5-min Rain = 0
KDMS 080730Z 03006KT M01/M02 A3026 RMK A01 T10101020  RH  094%=      5-min Rain = 0
KDMS 080735Z 03006KT M01/M02 A3026 RMK A01 T10101019  RH  094%=      5-min Rain = 0
KDMS 080740Z 03004KT M01/M02 A3026 RMK A01 T10101019  RH  095%=      5-min Rain = 0
KDMS 080745Z 03005KT M01/M02 A3026 RMK A01 T10101018  RH  095%=      5-min Rain = 0
KDMS 080750Z 04005KT M01/M02 A3026 RMK A01 T10101017  RH  096%=      5-min Rain = 0
KDMS 080755Z 03006KT M01/M02 A3026 RMK A01 T10111017  RH  096%=      5-min Rain = 0
KDMS 080800Z 03006KT M01/M02 A3026 RMK A01 T10111017  RH  096%=      5-min Rain = 0
KDMS 080805Z 03007KT M01/M02 A3026 RMK A01 T10111018  RH  096%=      5-min Rain = 0
KDMS 080810Z 03006KT M01/M02 A3026 RMK A01 T10121018  RH  096%=      5-min Rain = 0
KDMS 080815Z 04006KT M01/M02 A3026 RMK A01 T10121018  RH  097%=      5-min Rain = 0
KDMS 080820Z 03005KT M01/M02 A3027 RMK A01 T10131019  RH  097%=      5-min Rain = 0
KDMS 080825Z 03006KT M01/M02 A3026 RMK A01 T10131018  RH  097%=      5-min Rain = 0
KDMS 080830Z 03005KT M01/M02 A3026 RMK A01 T10131019  RH  097%=      5-min Rain = 0
KDMS 080835Z 03004KT M01/M02 A3027 RMK A01 T10131018  RH  097%=      5-min Rain = 0
KDMS 080840Z 03003KT M01/M02 A3027 RMK A01 T10131018  RH  097%=      5-min Rain = 0
KDMS 080845Z 03004KT M01/M02 A3027 RMK A01 T10131018  RH  097%=      5-min Rain = 0
KDMS 080850Z 04004KT M01/M02 A3026 RMK A01 T10131017  RH  098%=      5-min Rain = 0
KDMS 080855Z 02005KT M01/M02 A3026 RMK A01 T10121017  RH  098%=      5-min Rain = 0
KDMS 080900Z 02007KT M01/M02 A3025 RMK A01 T10131020  RH  096%=      5-min Rain = 0
KDMS 080905Z 01006KT M01/M02 A3026 RMK A01 T10131022  RH  094%=      5-min Rain = 0
KDMS 080910Z 01007KT M01/M02 A3026 RMK A01 T10131022  RH  094%=      5-min Rain = 0
KDMS 080915Z 00007KT M01/M02 A3026 RMK A01 T10131023  RH  094%=      5-min Rain = 0
KDMS 080920Z 00007KT M01/M02 A3025 RMK A01 T10131023  RH  094%=      5-min Rain = 0
KDMS 080925Z 01009KT M01/M03 A3025 RMK A01 T10131025  RH  092%=      5-min Rain = 0
KDMS 080930Z 00007KT M01/M03 A3025 RMK A01 T10131026  RH  092%=      5-min Rain = 0
KDMS 080935Z 00007KT M01/M03 A3025 RMK A01 T10131026  RH  092%=      5-min Rain = 0
KDMS 080940Z 01007KT M01/M03 A3025 RMK A01 T10131027  RH  091%=      5-min Rain = 0
KDMS 080945Z 01007KT M01/M03 A3025 RMK A01 T10131027  RH  091%=      5-min Rain = 0
KDMS 080950Z 01007KT M01/M03 A3025 RMK A01 T10131027  RH  091%=      5-min Rain = 0
KDMS 080955Z 02006KT M01/M03 A3025 RMK A01 T10131027  RH  091%=      5-min Rain = 0
KDMS 081000Z 01006KT M01/M03 A3025 RMK A01 T10131027  RH  091%=      5-min Rain = 0
KDMS 081005Z 01006KT M01/M03 A3025 RMK A01 T10141027  RH  091%=      5-min Rain = 0
KDMS 081010Z 01007KT M01/M03 A3025 RMK A01 T10141028  RH  091%=      5-min Rain = 0
KDMS 081015Z 01007KT M01/M03 A3024 RMK A01 T10141028  RH  091%=      5-min Rain = 0
KDMS 081020Z 01007KT M01/M03 A3024 RMK A01 T10141028  RH  091%=      5-min Rain = 0
KDMS 081025Z 01006KT M01/M03 A3024 RMK A01 T10141028  RH  091%=      5-min Rain = 0
KDMS 081030Z 01007KT M01/M03 A3024 RMK A01 T10141029  RH  090%=      5-min Rain = 0
KDMS 081035Z 01006KT M01/M03 A3024 RMK A01 T10141029  RH  090%=      5-min Rain = 0
KDMS 081040Z 00006KT M01/M03 A3024 RMK A01 T10141029  RH  090%=      5-min Rain = 0
KDMS 081045Z 00005KT M01/M03 A3024 RMK A01 T10141028  RH  091%=      5-min Rain = 0
KDMS 081050Z 00006KT M01/M03 A3024 RMK A01 T10141029  RH  091%=      5-min Rain = 0
KDMS 081055Z 00005KT M01/M03 A3024 RMK A01 T10141028  RH  091%=      5-min Rain = 0
KDMS 081100Z 00005KT M01/M03 A3024 RMK A01 T10141028  RH  091%=      5-min Rain = 0
KDMS 081105Z 00006KT M01/M03 A3024 RMK A01 T10141028  RH  091%=      5-min Rain = 0
KDMS 081110Z 00005KT M01/M03 A3023 RMK A01 T10141027  RH  091%=      5-min Rain = 0
KDMS 081115Z 00005KT M01/M03 A3023 RMK A01 T10141027  RH  092%=      5-min Rain = 0
KDMS 081120Z 36006KT M01/M03 A3024 RMK A01 T10141027  RH  092%=      5-min Rain = 0
KDMS 081125Z 35005KT M01/M03 A3024 RMK A01 T10141027  RH  092%=      5-min Rain = 0
KDMS 081130Z 36006KT M01/M03 A3024 RMK A01 T10141026  RH  092%=      5-min Rain = 0
KDMS 081135Z 00008KT M01/M03 A3024 RMK A01 T10141028  RH  091%=      5-min Rain = 0
KDMS 081140Z 36008KT M01/M03 A3024 RMK A01 T10141028  RH  091%=      5-min Rain = 0
KDMS 081145Z 00007KT M01/M03 A3024 RMK A01 T10141028  RH  091%=      5-min Rain = 0
KDMS 081150Z 00007KT M01/M03 A3024 RMK A01 T10141027  RH  092%=      5-min Rain = 0
KDMS 081155Z 01007KT M01/M03 A3024 RMK A01 T10141027  RH  092%=      5-min Rain = 0
KDMS 081200Z 36009KT M02/M03 A3024 RMK A01 T10151028  RH  091%=      5-min Rain = 0
KDMS 081205Z 00008KT M02/M03 A3024 RMK A01 T10151029  RH  091%=      5-min Rain = 0
KDMS 081210Z 01008KT M02/M03 A3024 RMK A01 T10161028  RH  092%=      5-min Rain = 0
KDMS 081215Z 01008KT M02/M03 A3024 RMK A01 T10161028  RH  093%=      5-min Rain = 0
KDMS 081220Z 01007KT M02/M03 A3024 RMK A01 T10161027  RH  093%=      5-min Rain = 0
KDMS 081225Z 01007KT M02/M03 A3024 RMK A01 T10171027  RH  094%=      5-min Rain = 0
KDMS 081230Z 01007KT M02/M03 A3024 RMK A01 T10171027  RH  094%=      5-min Rain = 0
KDMS 081235Z 01007KT M02/M03 A3024 RMK A01 T10171026  RH  094%=      5-min Rain = 0
KDMS 081240Z 01008KT M02/M03 A3024 RMK A01 T10181027  RH  095%=      5-min Rain = 0
KDMS 081245Z 01007KT M02/M03 A3024 RMK A01 T10181026  RH  095%=      5-min Rain = 0
KDMS 081250Z 01008KT M02/M03 A3024 RMK A01 T10181027  RH  094%=      5-min Rain = 0
KDMS 081255Z 01008KT M02/M03 A3024 RMK A01 T10181027  RH  094%=      5-min Rain = 0
KDMS 081300Z 01008KT M02/M03 A3024 RMK A01 T10181027  RH  094%=      5-min Rain = 0
KDMS 081305Z 01008KT M02/M03 A3024 RMK A01 T10181028  RH  094%=      5-min Rain = 0
KDMS 081310Z 01008KT M02/M03 A3024 RMK A01 T10181028  RH  093%=      5-min Rain = 0
KDMS 081315Z 01008KT M02/M03 A3025 RMK A01 T10181028  RH  094%=      5-min Rain = 0
KDMS 081320Z 01009KT M02/M03 A3025 RMK A01 T10181029  RH  093%=      5-min Rain = 0
KDMS 081325Z 01008KT M02/M03 A3025 RMK A01 T10181029  RH  093%=      5-min Rain = 0
KDMS 081330Z 01007KT M02/M03 A3025 RMK A01 T10181029  RH  092%=      5-min Rain = 0
KDMS 081335Z 01006KT M02/M03 A3026 RMK A01 T10171029  RH  092%=      5-min Rain = 0
KDMS 081340Z 02005KT M02/M03 A3026 RMK A01 T10171029  RH  093%=      5-min Rain = 0
KDMS 081345Z 02006KT M02/M03 A3026 RMK A01 T10171029  RH  092%=      5-min Rain = 0
KDMS 081350Z 02006KT M02/M03 A3026 RMK A01 T10171029  RH  092%=      5-min Rain = 0
KDMS 081355Z 02006KT M02/M03 A3026 RMK A01 T10171030  RH  092%=      5-min Rain = 0
KDMS 081400Z 02006KT M02/M03 A3027 RMK A01 T10171030  RH  091%=      5-min Rain = 0
KDMS 081405Z 02005KT M02/M03 A3027 RMK A01 T10171030  RH  091%=      5-min Rain = 0
KDMS 081410Z 01005KT M02/M03 A3027 RMK A01 T10171030  RH  091%=      5-min Rain = 0
KDMS 081415Z 01005KT M02/M03 A3028 RMK A01 T10161029  RH  091%=      5-min Rain = 0
KDMS 081420Z 01005KT M02/M03 A3028 RMK A01 T10161030  RH  091%=      5-min Rain = 0
KDMS 081425Z 01005KT M02/M03 A3028 RMK A01 T10161030  RH  091%=      5-min Rain = 0
KDMS 081430Z 03004KT M02/M03 A3028 RMK A01 T10151029  RH  091%=      5-min Rain = 0
KDMS 081435Z 03005KT M02/M03 A3028 RMK A01 T10151030  RH  090%=      5-min Rain = 0
KDMS 081440Z 02005KT M02/M03 A3029 RMK A01 T10151029  RH  090%=      5-min Rain = 0
KDMS 081445Z 03007KT M02/M03 A3029 RMK A01 T10151030  RH  090%=      5-min Rain = 0
KDMS 081450Z 02006KT M02/M03 A3029 RMK A01 T10151032  RH  089%=      5-min Rain = 0
KDMS 081455Z 02006KT M02/M03 A3029 RMK A01 T10151031  RH  089%=      5-min Rain = 0
KDMS 081500Z 03005KT M01/M03 A303 RMK A01 T10141030  RH  089%=      5-min Rain = 0
KDMS 081505Z 03006KT M01/M03 A303 RMK A01 T10141031  RH  089%=      5-min Rain = 0
KDMS 081510Z 03005KT M01/M03 A303 RMK A01 T10141031  RH  089%=      5-min Rain = 0
KDMS 081515Z 02006KT M01/M03 A303 RMK A01 T10131031  RH  089%=      5-min Rain = 0
KDMS 081520Z 02005KT M01/M03 A303 RMK A01 T10131032  RH  088%=      5-min Rain = 0
KDMS 081525Z 04005KT M01/M03 A303 RMK A01 T10131032  RH  088%=      5-min Rain = 0
KDMS 081530Z 04005KT M01/M03 A303 RMK A01 T10131032  RH  088%=      5-min Rain = 0
KDMS 081535Z 04006KT M01/M03 A303 RMK A01 T10131031  RH  088%=      5-min Rain = 0
KDMS 081540Z 03006KT M01/M03 A303 RMK A01 T10131032  RH  088%=      5-min Rain = 0
KDMS 081545Z 03005KT M01/M03 A303 RMK A01 T10131032  RH  088%=      5-min Rain = 0
KDMS 081550Z 03005KT M01/M03 A3031 RMK A01 T10131032  RH  087%=      5-min Rain = 0
KDMS 081555Z 03006KT M01/M03 A3031 RMK A01 T10131032  RH  087%=      5-min Rain = 0
KDMS 081600Z 04006KT M01/M03 A3031 RMK A01 T10131032  RH  087%=      5-min Rain = 0
KDMS 081605Z 02006KT M01/M03 A303 RMK A01 T10131032  RH  087%=      5-min Rain = 0
KDMS 081610Z 04005KT M01/M03 A303 RMK A01 T10131033  RH  086%=      5-min Rain = 0
KDMS 081615Z 04005KT M01/M03 A3031 RMK A01 T10121031  RH  087%=      5-min Rain = 0
KDMS 081620Z 04005KT M01/M03 A303 RMK A01 T10111031  RH  087%=      5-min Rain = 0
KDMS 081625Z 03004KT M01/M03 A3031 RMK A01 T10111031  RH  087%=      5-min Rain = 0
KDMS 081630Z 02005KT M01/M03 A3031 RMK A01 T10111032  RH  086%=      5-min Rain = 0
KDMS 081635Z 01005KT M01/M03 A3031 RMK A01 T10111032  RH  086%=      5-min Rain = 0
KDMS 081640Z 02006KT M01/M03 A3031 RMK A01 T10111034  RH  085%=      5-min Rain = 0
KDMS 081645Z 01004KT M01/M03 A3031 RMK A01 T10101032  RH  086%=      5-min Rain = 0
KDMS 081650Z 00005KT M01/M03 A3031 RMK A01 T10091033  RH  085%=      5-min Rain = 0
KDMS 081655Z 01005KT M01/M03 A3031 RMK A01 T10081032  RH  084%=      5-min Rain = 0
KDMS 081700Z 02006KT M01/M03 A3031 RMK A01 T10081033  RH  083%=      5-min Rain = 0
KDMS 081705Z 03004KT M01/M03 A3031 RMK A01 T10071032  RH  084%=      5-min Rain = 0.01
KDMS 081710Z 03004KT M01/M03 A3031 RMK A01 T10071033  RH  083%=      5-min Rain = 0
KDMS 081715Z 01004KT M01/M03 A3031 RMK A01 T10071033  RH  083%=      5-min Rain = 0
KDMS 081720Z 01003KT M01/M03 A3031 RMK A01 T10061033  RH  082%=      5-min Rain = 0
KDMS 081725Z 00004KT M01/M03 A3031 RMK A01 T10061034  RH  082%=      5-min Rain = 0
KDMS 081730Z 01003KT M01/M03 A303 RMK A01 T10051034  RH  081%=      5-min Rain = 0
KDMS 081735Z 02004KT M01/M03 A303 RMK A01 T10051034  RH  081%=      5-min Rain = 0
KDMS 081740Z 04004KT M00/M03 A303 RMK A01 T10041033  RH  081%=      5-min Rain = 0
KDMS 081745Z 04002KT M01/M03 A303 RMK A01 T10051034  RH  081%=      5-min Rain = 0
KDMS 081750Z 05003KT M00/M03 A3029 RMK A01 T10031033  RH  081%=      5-min Rain = 0
KDMS 081755Z 03003KT M00/M03 A3029 RMK A01 T10031033  RH  081%=      5-min Rain = 0
KDMS 081800Z 04002KT M00/M03 A3029 RMK A01 T10031034  RH  080%=      5-min Rain = 0
KDMS 081805Z 03002KT M00/M03 A3029 RMK A01 T10011031  RH  081%=      5-min Rain = 0
KDMS 081810Z 03004KT 00/M03 A3029 RMK A01 T00011031  RH  080%=      5-min Rain = 0
KDMS 081815Z 01003KT 00/M03 A3028 RMK A01 T00021031  RH  079%=      5-min Rain = 0
KDMS 081820Z 03003KT 00/M03 A3028 RMK A01 T00031030  RH  079%=      5-min Rain = 0
KDMS 081825Z 05004KT 00/M03 A3028 RMK A01 T00041029  RH  079%=      5-min Rain = 0
KDMS 081830Z 04002KT 01/M03 A3028 RMK A01 T00051029  RH  079%=      5-min Rain = 0
KDMS 081835Z 36004KT 01/M03 A3027 RMK A01 T00051030  RH  077%=      5-min Rain = 0
KDMS 081840Z 34003KT 01/M03 A3027 RMK A01 T00051030  RH  078%=      5-min Rain = 0
KDMS 081845Z 01003KT 01/M03 A3027 RMK A01 T00061031  RH  077%=      5-min Rain = 0
KDMS 081850Z 01004KT 01/M03 A3027 RMK A01 T00081030  RH  077%=      5-min Rain = 0
KDMS 081855Z 02004KT 01/M03 A3027 RMK A01 T00091030  RH  076%=      5-min Rain = 0
KDMS 081900Z 35004KT 01/M03 A3027 RMK A01 T00101029  RH  076%=      5-min Rain = 0
KDMS 081905Z 32004KT 01/M03 A3026 RMK A01 T00091031  RH  075%=      5-min Rain = 0
KDMS 081910Z 35005KT 01/M03 A3026 RMK A01 T00101029  RH  076%=      5-min Rain = 0
KDMS 081915Z 36003KT 01/M03 A3026 RMK A01 T00111030  RH  075%=      5-min Rain = 0
KDMS 081920Z 33005KT 01/M03 A3026 RMK A01 T00121030  RH  074%=      5-min Rain = 0
KDMS 081925Z 33004KT 01/M03 A3026 RMK A01 T00111031  RH  074%=      5-min Rain = 0
KDMS 081930Z 34006KT 01/M03 A3026 RMK A01 T00121030  RH  074%=      5-min Rain = 0
KDMS 081935Z 35004KT 01/M03 A3025 RMK A01 T00121032  RH  073%=      5-min Rain = 0
KDMS 081940Z 34004G9KT 01/M03 A3025 RMK A01 T00131031  RH  073%=      5-min Rain = 0
KDMS 081945Z 32005KT 01/M03 A3025 RMK A01 T00131032  RH  072%=      5-min Rain = 0
KDMS 081950Z 31006KT 01/M03 A3025 RMK A01 T00141031  RH  072%=      5-min Rain = 0
KDMS 081955Z 30005G10KT 01/M03 A3024 RMK A01 T00141033  RH  071%=      5-min Rain = 0
KDMS 082000Z 32004KT 02/M03 A3024 RMK A01 T00151032  RH  072%=      5-min Rain = 0
KDMS 082005Z 32004KT 02/M03 A3023 RMK A01 T00181030  RH  071%=      5-min Rain = 0
KDMS 082010Z 35006KT 02/M03 A3023 RMK A01 T00191032  RH  070%=      5-min Rain = 0
KDMS 082015Z 35006KT 02/M03 A3023 RMK A01 T00191032  RH  069%=      5-min Rain = 0
KDMS 082020Z 35004KT 02/M03 A3023 RMK A01 T00211031  RH  069%=      5-min Rain = 0
KDMS 082025Z 36004KT 02/M03 A3023 RMK A01 T00221031  RH  068%=      5-min Rain = 0
KDMS 082030Z 01003KT 02/M03 A3023 RMK A01 T00221032  RH  068%=      5-min Rain = 0
KDMS 082035Z 35004KT 02/M03 A3023 RMK A01 T00241032  RH  067%=      5-min Rain = 0
KDMS 082040Z 35006KT 03/M03 A3022 RMK A01 T00261033  RH  065%=      5-min Rain = 0
KDMS 082045Z 34006KT 03/M03 A3023 RMK A01 T00261034  RH  065%=      5-min Rain = 0
KDMS 082050Z 32005KT 03/M03 A3023 RMK A01 T00261033  RH  066%=      5-min Rain = 0
KDMS 082055Z 29004KT 03/M03 A3022 RMK A01 T00281031  RH  066%=      5-min Rain = 0
KDMS 082100Z 28004KT 03/M03 A3022 RMK A01 T00271033  RH  065%=      5-min Rain = 0
KDMS 082105Z 29002KT 03/M03 A3022 RMK A01 T00281031  RH  065%=      5-min Rain = 0
KDMS 082110Z 29002KT 03/M03 A3022 RMK A01 T00311032  RH  064%=      5-min Rain = 0
KDMS 082115Z 31003KT 03/M03 A3022 RMK A01 T00311031  RH  064%=      5-min Rain = 0
KDMS 082120Z 29005KT 03/M03 A3022 RMK A01 T00341028  RH  064%=      5-min Rain = 0
KDMS 082125Z 30005KT 03/M03 A3022 RMK A01 T00321030  RH  064%=      5-min Rain = 0
KDMS 082130Z 31004KT 03/M03 A3021 RMK A01 T00311030  RH  065%=      5-min Rain = 0
KDMS 082135Z 31004KT 03/M03 A3021 RMK A01 T00311030  RH  064%=      5-min Rain = 0
KDMS 082140Z 31003KT 03/M03 A3021 RMK A01 T00331029  RH  065%=      5-min Rain = 0
KDMS 082145Z 35004KT 03/M03 A3021 RMK A01 T00331029  RH  064%=      5-min Rain = 0
KDMS 082150Z 35001KT 03/M03 A3021 RMK A01 T00341029  RH  064%=      5-min Rain = 0
KDMS 082155Z 31004KT 03/M03 A3021 RMK A01 T00341030  RH  063%=      5-min Rain = 0
KDMS 082200Z 31002KT 03/M03 A3021 RMK A01 T00331029  RH  064%=      5-min Rain = 0
KDMS 082205Z 31003KT 04/M03 A3021 RMK A01 T00351028  RH  064%=      5-min Rain = 0
KDMS 082210Z 32005KT 04/M03 A3021 RMK A01 T00351028  RH  064%=      5-min Rain = 0
KDMS 082215Z 30005KT 03/M03 A3021 RMK A01 T00341029  RH  064%=      5-min Rain = 0
KDMS 082220Z 32004KT 03/M03 A3021 RMK A01 T00331030  RH  064%=      5-min Rain = 0
KDMS 082225Z 31004KT 03/M03 A3021 RMK A01 T00341029  RH  064%=      5-min Rain = 0
KDMS 082230Z 32003KT 03/M03 A3021 RMK A01 T00331030  RH  064%=      5-min Rain = 0
KDMS 082235Z 32003KT 03/M03 A3021 RMK A01 T00331030  RH  064%=      5-min Rain = 0
KDMS 082240Z 01003KT 03/M03 A3021 RMK A01 T00331028  RH  065%=      5-min Rain = 0
KDMS 082245Z 03002KT 03/M03 A3021 RMK A01 T00311027  RH  066%=      5-min Rain = 0
KDMS 082250Z 01002KT 03/M03 A3021 RMK A01 T00311027  RH  066%=      5-min Rain = 0
KDMS 082255Z 01002KT 03/M03 A3021 RMK A01 T00311029  RH  065%=      5-min Rain = 0
KDMS 082300Z 00004KT 03/M03 A3022 RMK A01 T00291025  RH  068%=      5-min Rain = 0
KDMS 082305Z 01003KT 03/M03 A3021 RMK A01 T00261025  RH  070%=      5-min Rain = 0
KDMS 082310Z 02002KT 02/M02 A3021 RMK A01 T00241024  RH  071%=      5-min Rain = 0
KDMS 082315Z 03001KT 02/M03 A3021 RMK A01 T00241025  RH  071%=      5-min Rain = 0
KDMS 082320Z 05002KT 02/M03 A3021 RMK A01 T00231028  RH  069%=      5-min Rain = 0
KDMS 082325Z 06002KT 02/M03 A3021 RMK A01 T00221028  RH  070%=      5-min Rain = 0
KDMS 082330Z 06001KT 02/M03 A3021 RMK A01 T00211029  RH  070%=      5-min Rain = 0
KDMS 082335Z 06002KT 02/M03 A3021 RMK A01 T00191028  RH  071%=      5-min Rain = 0
KDMS 082340Z 07002KT 02/M03 A3022 RMK A01 T00171029  RH  072%=      5-min Rain = 0
KDMS 082345Z 08002KT 01/M03 A3022 RMK A01 T00141030  RH  073%=      5-min Rain = 0
KDMS 082350Z 09001KT 01/M03 A3022 RMK A01 T00131031  RH  073%=      5-min Rain = 0
KDMS 082355Z 09001KT 01/M03 A3022 RMK A01 T00121031  RH  073%=      5-min Rain = 0
KDMS 090000Z 09002KT 01/M03 A3022 RMK A01 T00111030  RH  074%=      5-min Rain = 0
KDMS 090005Z 09001KT 01/M03 A3022 RMK A01 T00121030  RH  074%=      5-min Rain = 0
KDMS 090010Z 09001KT 01/M03 A3023 RMK A01 T00121030  RH  074%=      5-min Rain = 0
KDMS 090015Z 09000KT 01/M03 A3023 RMK A01 T00111031  RH  074%=      5-min Rain = 0
KDMS 090020Z 09000KT 01/M03 A3023 RMK A01 T00101031  RH  075%=      5-min Rain = 0
KDMS 090025Z 09001KT 01/M03 A3023 RMK A01 T00101031  RH  074%=      5-min Rain = 0
KDMS 090030Z 09001KT 01/M03 A3023 RMK A01 T00101031  RH  075%=      5-min Rain = 0
KDMS 090035Z 09001KT 01/M03 A3023 RMK A01 T00091032  RH  074%=      5-min Rain = 0
KDMS 090040Z 09002KT 01/M03 A3023 RMK A01 T00091034  RH  074%=      5-min Rain = 0
KDMS 090045Z 09001KT 01/M04 A3023 RMK A01 T00101035  RH  073%=      5-min Rain = 0
KDMS 090050Z 09001KT 01/M04 A3023 RMK A01 T00091035  RH  073%=      5-min Rain = 0
KDMS 090055Z 09001KT 01/M04 A3023 RMK A01 T00061036  RH  074%=      5-min Rain = 0
KDMS 090100Z 09001KT 01/M04 A3024 RMK A01 T00051036  RH  075%=      5-min Rain = 0
KDMS 090105Z 09001KT M00/M04 A3024 RMK A01 T10041043  RH  076%=      5-min Rain = 0
KDMS 090110Z 09001KT M01/M04 A3024 RMK A01 T10091041  RH  079%=      5-min Rain = 0
KDMS 090115Z 08001KT M01/M04 A3024 RMK A01 T10081038  RH  081%=      5-min Rain = 0
KDMS 090120Z 08001KT M01/M04 A3024 RMK A01 T10051036  RH  080%=      5-min Rain = 0
KDMS 090125Z 07001KT 00/M04 A3024 RMK A01 T00011035  RH  077%=      5-min Rain = 0
KDMS 090130Z 07001KT 00/M04 A3024 RMK A01 T00021035  RH  077%=      5-min Rain = 0
KDMS 090135Z 07001KT 00/M04 A3024 RMK A01 T00021035  RH  077%=      5-min Rain = 0
KDMS 090140Z 07001KT M00/M04 A3024 RMK A01 T10021039  RH  076%=      5-min Rain = 0
KDMS 090145Z 07001KT M01/M05 A3024 RMK A01 T10121046  RH  079%=      5-min Rain = 0
KDMS 090150Z 07001KT M02/M04 A3024 RMK A01 T10171044  RH  083%=      5-min Rain = 0
KDMS 090155Z 23001KT M02/M04 A3024 RMK A01 T10201040  RH  087%=      5-min Rain = 0
KDMS 090200Z 24002KT M02/M04 A3024 RMK A01 T10201040  RH  087%=      5-min Rain = 0
KDMS 090205Z 23001KT M02/M04 A3025 RMK A01 T10211041  RH  086%=      5-min Rain = 0
KDMS 090210Z 20001KT M02/M04 A3025 RMK A01 T10231043  RH  087%=      5-min Rain = 0
KDMS 090215Z 17002KT M03/M04 A3025 RMK A01 T10251042  RH  089%=      5-min Rain = 0
KDMS 090220Z 15002KT M02/M04 A3025 RMK A01 T10241039  RH  089%=      5-min Rain = 0
KDMS 090225Z 14002KT M02/M04 A3025 RMK A01 T10231038  RH  090%=      5-min Rain = 0
KDMS 090230Z 18001KT M02/M04 A3025 RMK A01 T10221037  RH  089%=      5-min Rain = 0
KDMS 090235Z 19001KT M02/M04 A3025 RMK A01 T10231040  RH  089%=      5-min Rain = 0
KDMS 090240Z 21002KT M02/M04 A3025 RMK A01 T10231039  RH  089%=      5-min Rain = 0
KDMS 090245Z 22003KT M03/M04 A3025 RMK A01 T10281044  RH  089%=      5-min Rain = 0
KDMS 090250Z 23002KT M03/M05 A3025 RMK A01 T10311045  RH  091%=      5-min Rain = 0
KDMS 090255Z 23003KT M03/M04 A3026 RMK A01 T10291041  RH  092%=      5-min Rain = 0
KDMS 090300Z 23003KT M03/M04 A3026 RMK A01 T10281039  RH  092%=      5-min Rain = 0
KDMS 090305Z 23002KT M03/M04 A3026 RMK A01 T10261038  RH  092%=      5-min Rain = 0
KDMS 090310Z 23003KT M03/M04 A3026 RMK A01 T10261038  RH  092%=      5-min Rain = 0
KDMS 090315Z 24003KT M03/M04 A3026 RMK A01 T10251036  RH  092%=      5-min Rain = 0
KDMS 090320Z 24004KT M03/M04 A3026 RMK A01 T10261038  RH  092%=      5-min Rain = 0
KDMS 090325Z 24004KT M03/M04 A3026 RMK A01 T10261035  RH  094%=      5-min Rain = 0
KDMS 090330Z 24004KT M03/M04 A3027 RMK A01 T10291040  RH  093%=      5-min Rain = 0
KDMS 090335Z 25004KT M03/M04 A3027 RMK A01 T10301039  RH  094%=      5-min Rain = 0
KDMS 090340Z 24004KT M03/M04 A3027 RMK A01 T10321041  RH  093%=      5-min Rain = 0
KDMS 090345Z 25004KT M03/M04 A3027 RMK A01 T10341044  RH  094%=      5-min Rain = 0
KDMS 090350Z 25005KT M03/M04 A3027 RMK A01 T10331041  RH  095%=      5-min Rain = 0
KDMS 090355Z 25004KT M04/M04 A3027 RMK A01 T10351044  RH  094%=      5-min Rain = 0
KDMS 090400Z 25005KT M04/M04 A3027 RMK A01 T10351043  RH  095%=      5-min Rain = 0
KDMS 090405Z 25005KT M04/M05 A3027 RMK A01 T10401050  RH  094%=      5-min Rain = 0
KDMS 090410Z 26005KT M04/M05 A3027 RMK A01 T10421050  RH  094%=      5-min Rain = 0
KDMS 090415Z 26005KT M04/M05 A3027 RMK A01 T10441053  RH  094%=      5-min Rain = 0
KDMS 090420Z 26004KT M04/M05 A3027 RMK A01 T10441052  RH  094%=      5-min Rain = 0
KDMS 090425Z 26003KT M04/M05 A3027 RMK A01 T10431051  RH  095%=      5-min Rain = 0
KDMS 090430Z 25004KT M04/M05 A3028 RMK A01 T10431051  RH  095%=      5-min Rain = 0
KDMS 090435Z 25005KT M04/M05 A3028 RMK A01 T10421050  RH  095%=      5-min Rain = 0
KDMS 090440Z 25005KT M04/M05 A3028 RMK A01 T10421051  RH  094%=      5-min Rain = 0
KDMS 090445Z 25006KT M05/M06 A3028 RMK A01 T10461056  RH  093%=      5-min Rain = 0
KDMS 090450Z 25005KT M05/M05 A3028 RMK A01 T10451053  RH  094%=      5-min Rain = 0
KDMS 090455Z 26005KT M05/M05 A3028 RMK A01 T10451054  RH  094%=      5-min Rain = 0
KDMS 090500Z 26005KT M05/M06 A3028 RMK A01 T10461055  RH  094%=      5-min Rain = 0
KDMS 090505Z 26005KT M05/M05 A3028 RMK A01 T10451053  RH  094%=      5-min Rain = 0
KDMS 090510Z 25005KT M04/M05 A3029 RMK A01 T10441053  RH  094%=      5-min Rain = 0
KDMS 090515Z 25005KT M04/M05 A3029 RMK A01 T10441053  RH  094%=      5-min Rain = 0
KDMS 090520Z 26004KT M04/M05 A3029 RMK A01 T10441053  RH  094%=      5-min Rain = 0
KDMS 090525Z 26004KT M04/M05 A3028 RMK A01 T10421051  RH  094%=      5-min Rain = 0
KDMS 090530Z 26004KT M04/M05 A3028 RMK A01 T10411051  RH  093%=      5-min Rain = 0
KDMS 090535Z 26004KT M04/M05 A3028 RMK A01 T10411051  RH  093%=      5-min Rain = 0
KDMS 090540Z 25004KT M04/M06 A3028 RMK A01 T10441055  RH  093%=      5-min Rain = 0
KDMS 090545Z 26004KT M04/M05 A3028 RMK A01 T10431052  RH  094%=      5-min Rain = 0
KDMS 090550Z 26003KT M04/M05 A3028 RMK A01 T10431052  RH  093%=      5-min Rain = 0
KDMS 090555Z 26003KT M05/M05 A3028 RMK A01 T10451054  RH  093%=      5-min Rain = 0

Page generated in 0.0093 seconds.